Rising Fawn, GA

9:52 AM EST on February 08, 2016 (GMT -0500)
Moo2 Farm | | Change Station
CLOSE
Current Station
Personal Weather Station
Location: Rising Fawn, GA
Elevation: 1995 ft
Nearby Weather Stations

Elev 1995 ft 34.80 °N, 85.44 °W | Updated 4 seconds ago

Partly Cloudy
Partly Cloudy
48.6 °F
Feels Like 49 °F
N
2.9
Wind Variable Wind from North
Gusts 2.9 mph

Today
High -- | Low -- °F
--% Chance of Precip.
Yesterday
High -- | Low -- °F
Precip. -- in
Pressure 29.80 in
Visibility 10.0 miles
Clouds Few 3000 ft
Scattered Clouds 9000 ft
Mostly Cloudy 25000 ft
Windchill 49 °F
Dew Point 17 °F
Humidity 28%
Rainfall 0.00 in
Snow Depth Not available.
7:34 AM 6:17 PM
Waning Crescent, 0% visible
METAR KCHA 081353Z 22004KT 10SM FEW030 SCT090 BKN250 07/M02 A2980 RMK AO2 SLP089 T00671022
Pressure 29.80 in
Visibility 10.0 miles
Clouds Few 3000 ft
Scattered Clouds 9000 ft
Mostly Cloudy 25000 ft
Windchill 49 °F
Dew Point 17 °F
Humidity 28%
Rainfall 0.00 in
Snow Depth Not available.
7:34 AM 6:17 PM
Waning Crescent, 0% visible
METAR KCHA 081353Z 22004KT 10SM FEW030 SCT090 BKN250 07/M02 A2980 RMK AO2 SLP089 T00671022

10-Day Weather Forecast

Almanac

Astronomy

Feb. 08, 2016 Rise Set
Actual Time
Civil Twilight
Nautical Twilight
Astronomical Twilight
Moon
Length of Visible Light
Length of Day
Tomorrow will be .
, % of the Moon is Illuminated

Today's Extremes

State Highs State Lows

Community

WunderPhotos

Upload Photos

1,891,437 photos uploaded!

WunderBlog® & News

Nearby

Air Quality

  Air Quality AQ Index Pollutant
Not available.

Snow Depth

Station Depth Elevation

Earthquake Activity

City Distance Mag. Time & Date
Minimum magnitude displayed is 2.5.

Coastal Water Temperatures

Place Temperature

Stations

Nearby Weather Stations

Station Location Temp. Windchill Dew Point Humidity Wind Precip. Elev Updated Type
                   

Watches & Warnings

There are currently no watches in effect.